Time;durP1;ratioP1;P1;durP2;ratioP2;P2;SDS_P1;SDS_P2;PMS_P1;PMS_P2;Temp;Humidity;BMP_temperature;BMP_pressure;BME280_temperature;BME280_humidity;BME280_pressure;Samples;Min_cycle;Max_cycle;Signal;HPM_P1;HPM_P2
2022/08/17 00:00:23;;;;;;;16.48;9.18;;;23.40;99.90;;;;;;4150409;28;20172;-93
2022/08/17 00:02:24;;;;;;;15.07;9.50;;;23.30;99.90;;;;;;4150136;28;20263;-91
2022/08/17 00:04:25;;;;;;;18.02;10.00;;;23.30;99.90;;;;;;4117955;28;20171;-93
2022/08/17 00:06:28;;;;;;;13.43;9.80;;;23.20;99.90;;;;;;4118246;28;20181;-91
2022/08/17 00:08:32;;;;;;;14.00;8.75;;;23.30;99.90;;;;;;4150214;28;20201;-92
2022/08/17 00:10:33;;;;;;;25.63;13.65;;;23.50;99.90;;;;;;4150260;28;20169;-93
2022/08/17 00:12:40;;;;;;;21.27;13.85;;;24.20;99.90;;;;;;4150146;28;20169;-92
2022/08/17 00:14:41;;;;;;;21.10;15.45;;;24.30;99.90;;;;;;4150230;28;20180;-91
2022/08/17 00:16:52;;;;;;;21.23;14.75;;;24.30;99.90;;;;;;4134026;28;20618;-91
2022/08/17 00:18:52;;;;;;;18.10;12.48;;;24.50;99.90;;;;;;4166574;28;20196;-92
2022/08/17 00:20:55;;;;;;;24.80;13.10;;;24.50;99.90;;;;;;4117661;28;20671;-93
2022/08/17 00:23:21;;;;;;;16.63;13.02;;;24.20;99.90;;;;;;4149864;28;20217;-93
2022/08/17 00:25:22;;;;;;;16.17;12.18;;;23.80;99.90;;;;;;4114980;28;20216;-91
2022/08/17 00:27:23;;;;;;;17.98;13.52;;;23.60;99.90;;;;;;4117539;28;20183;-92
2022/08/17 00:29:23;;;;;;;20.90;12.15;;;23.50;99.90;;;;;;4133700;28;20174;-91
2022/08/17 00:31:25;;;;;;;19.55;12.20;;;23.50;99.90;;;;;;4134611;28;20638;-93
2022/08/17 00:33:29;;;;;;;13.75;10.80;;;23.50;99.90;;;;;;4149702;28;20287;-92
2022/08/17 00:35:29;;;;;;;20.35;12.23;;;23.60;99.90;;;;;;4149945;28;20173;-91
2022/08/17 00:37:30;;;;;;;25.02;12.35;;;23.60;99.90;;;;;;4117049;28;20221;-92
2022/08/17 00:39:31;;;;;;;19.75;11.75;;;23.60;99.90;;;;;;4166278;28;20172;-91
2022/08/17 00:41:34;;;;;;;18.10;12.95;;;23.70;99.90;;;;;;4117401;28;20646;-92
2022/08/17 00:43:41;;;;;;;19.85;10.85;;;23.60;99.90;;;;;;4149934;28;20175;-92
2022/08/17 00:45:43;;;;;;;17.70;11.38;;;23.70;99.90;;;;;;4149850;28;20560;-92
2022/08/17 00:47:43;;;;;;;16.80;11.57;;;23.70;99.90;;;;;;4149766;28;20200;-91
2022/08/17 00:49:44;;;;;;;15.65;12.05;;;23.80;99.90;;;;;;4133452;28;20686;-90
2022/08/17 00:51:55;;;;;;;19.23;11.80;;;23.70;99.90;;;;;;4149591;28;20181;-91
2022/08/17 00:54:05;;;;;;;19.00;11.30;;;23.70;99.90;;;;;;4149726;28;20216;-91
2022/08/17 00:56:13;;;;;;;15.23;10.57;;;23.70;99.90;;;;;;4133388;28;20225;-90
2022/08/17 00:58:14;;;;;;;15.68;11.15;;;23.80;99.90;;;;;;4116946;28;20289;-90
2022/08/17 01:00:25;;;;;;;19.63;10.80;;;23.90;99.90;;;;;;4149489;28;20634;-92
2022/08/17 01:02:27;;;;;;;18.63;11.07;;;23.90;99.90;;;;;;4149485;28;20174;-91
2022/08/17 01:04:29;;;;;;;16.17;11.32;;;24.00;99.90;;;;;;4149465;28;20176;-92
2022/08/17 01:06:31;;;;;;;25.88;10.73;;;24.20;99.90;;;;;;4149360;28;20180;-91
2022/08/17 01:08:32;;;;;;;14.50;10.70;;;24.20;99.90;;;;;;4149245;28;20205;-91
2022/08/17 01:10:41;;;;;;;18.20;11.02;;;24.40;99.90;;;;;;4149080;28;20227;-92
2022/08/17 01:12:42;;;;;;;18.05;11.15;;;24.40;99.90;;;;;;4148032;28;20700;-91
2022/08/17 01:14:43;;;;;;;14.98;11.10;;;24.40;99.90;;;;;;4116861;28;20187;-92
2022/08/17 01:16:44;;;;;;;16.42;11.38;;;24.20;99.90;;;;;;4148891;28;20259;-92
2022/08/17 01:18:47;;;;;;;23.15;11.75;;;24.00;99.90;;;;;;4132748;28;20232;-92
2022/08/17 01:20:51;;;;;;;19.45;10.82;;;23.90;99.90;;;;;;4148913;28;20616;-91
2022/08/17 01:22:52;;;;;;;21.60;10.73;;;23.70;99.90;;;;;;4148707;28;20177;-93
2022/08/17 01:24:58;;;;;;;14.10;10.88;;;23.70;99.90;;;;;;4149201;28;20179;-91
2022/08/17 01:27:00;;;;;;;16.00;10.43;;;23.60;99.90;;;;;;4149097;28;20172;-92
2022/08/17 01:29:02;;;;;;;15.90;10.40;;;23.40;99.90;;;;;;4148991;28;20228;-92
2022/08/17 01:31:06;;;;;;;14.88;10.82;;;23.30;99.90;;;;;;4148863;28;20169;-92
2022/08/17 01:33:10;;;;;;;16.02;10.77;;;23.20;99.90;;;;;;4148803;28;20296;-93
2022/08/17 01:35:11;;;;;;;19.42;11.20;;;23.10;99.90;;;;;;4116610;28;20178;-91
2022/08/17 01:37:13;;;;;;;17.65;11.20;;;23.10;99.90;;;;;;4116344;28;20174;-91
2022/08/17 01:39:24;;;;;;;16.58;11.68;;;23.10;99.90;;;;;;4148851;28;20172;-92
2022/08/17 01:41:25;;;;;;;20.52;11.95;;;23.10;99.90;;;;;;4148961;28;20184;-91
2022/08/17 01:43:37;;;;;;;18.75;11.68;;;23.20;99.90;;;;;;4148904;28;20176;-91
2022/08/17 01:45:42;;;;;;;17.02;11.38;;;23.20;99.90;;;;;;4148939;28;20263;-91
2022/08/17 01:47:44;;;;;;;17.75;12.00;;;23.30;99.90;;;;;;4148637;28;20277;-91
2022/08/17 01:49:45;;;;;;;20.70;11.60;;;23.40;99.90;;;;;;4148812;28;20181;-91
2022/08/17 01:51:46;;;;;;;16.40;10.85;;;23.40;99.90;;;;;;4116672;28;20180;-91
2022/08/17 01:53:51;;;;;;;16.65;11.73;;;23.40;99.90;;;;;;4148749;28;20220;-91
2022/08/17 01:55:56;;;;;;;15.48;10.65;;;23.40;99.90;;;;;;4148537;28;20185;-93
2022/08/17 01:57:57;;;;;;;29.83;11.63;;;23.50;99.90;;;;;;4148496;28;20197;-91
2022/08/17 01:59:58;;;;;;;16.70;10.60;;;23.50;99.90;;;;;;4116497;28;20185;-91
2022/08/17 02:01:59;;;;;;;15.95;11.13;;;23.30;99.90;;;;;;4148506;28;20627;-92
2022/08/17 02:04:01;;;;;;;16.92;11.05;;;23.20;99.90;;;;;;4132343;28;20181;-93
2022/08/17 02:06:02;;;;;;;11.55;8.05;;;23.00;99.90;;;;;;4148445;28;20177;-94
2022/08/17 02:08:03;;;;;;;16.75;9.90;;;22.80;99.90;;;;;;4148194;28;20189;-91
2022/08/17 02:10:07;;;;;;;15.15;10.15;;;22.70;99.90;;;;;;4148668;28;20165;-91
2022/08/17 02:12:08;;;;;;;15.35;10.85;;;22.60;99.90;;;;;;4116048;28;20170;-92
2022/08/17 02:14:09;;;;;;;17.90;10.68;;;22.70;99.90;;;;;;4132213;28;20564;-93
2022/08/17 02:16:10;;;;;;;12.27;10.13;;;22.90;99.90;;;;;;4148517;28;20652;-91
2022/08/17 02:18:12;;;;;;;15.25;10.65;;;22.90;99.90;;;;;;4116121;28;20206;-92
2022/08/17 02:20:13;;;;;;;12.02;9.90;;;22.80;99.90;;;;;;4148415;28;20532;-93
2022/08/17 02:22:17;;;;;;;14.70;10.60;;;22.70;99.90;;;;;;4116021;28;20205;-93
2022/08/17 02:24:27;;;;;;;13.60;9.98;;;22.60;99.90;;;;;;4148189;28;20185;-92
2022/08/17 02:26:28;;;;;;;15.70;9.57;;;22.50;99.90;;;;;;4148479;28;20168;-92
2022/08/17 02:28:29;;;;;;;9.95;8.27;;;22.60;99.90;;;;;;4115997;28;20596;-92
2022/08/17 02:30:30;;;;;;;13.00;9.00;;;22.60;99.90;;;;;;4148195;28;20165;-93
2022/08/17 02:32:31;;;;;;;13.98;10.50;;;22.80;99.90;;;;;;4116016;28;20189;-92
2022/08/17 02:34:31;;;;;;;12.82;8.70;;;22.80;99.90;;;;;;4148336;28;20645;-93
2022/08/17 02:36:33;;;;;;;13.40;9.50;;;22.80;99.90;;;;;;4115921;28;20697;-93
2022/08/17 02:38:36;;;;;;;13.40;10.35;;;22.90;99.90;;;;;;4147867;28;20204;-92
2022/08/17 02:40:39;;;;;;;13.48;8.55;;;22.90;99.90;;;;;;4148223;28;20235;-92
2022/08/17 02:42:42;;;;;;;15.90;10.00;;;22.90;99.90;;;;;;4148164;28;20268;-93
2022/08/17 02:44:42;;;;;;;15.68;8.95;;;23.00;99.90;;;;;;4148236;28;20191;-92
2022/08/17 02:46:43;;;;;;;10.70;9.45;;;22.80;99.90;;;;;;4115966;28;20233;-92
2022/08/17 02:48:44;;;;;;;15.38;9.05;;;22.90;99.90;;;;;;4148280;28;20695;-91
2022/08/17 02:50:45;;;;;;;14.05;9.55;;;22.80;99.90;;;;;;4131879;28;20255;-93
2022/08/17 02:52:47;;;;;;;11.82;9.38;;;22.80;99.90;;;;;;4148150;28;20196;-92
2022/08/17 02:54:47;;;;;;;13.85;10.15;;;23.00;99.90;;;;;;4148111;28;20638;-93
2022/08/17 02:56:48;;;;;;;14.30;10.63;;;23.00;99.90;;;;;;4115984;28;20166;-93
2022/08/17 02:58:49;;;;;;;13.60;9.93;;;22.90;99.90;;;;;;4147895;28;20200;-94
2022/08/17 03:00:49;;;;;;;20.33;10.27;;;22.80;99.90;;;;;;4148137;28;20173;-93
2022/08/17 03:02:51;;;;;;;19.10;10.10;;;22.70;99.90;;;;;;4115960;28;20198;-92
2022/08/17 03:04:51;;;;;;;14.00;9.73;;;22.60;99.90;;;;;;4148151;28;20184;-93
2022/08/17 03:06:52;;;;;;;15.90;10.07;;;22.60;99.90;;;;;;4131837;28;20537;-93
2022/08/17 03:08:53;;;;;;;14.07;10.18;;;22.60;99.90;;;;;;4147901;28;20197;-93
2022/08/17 03:10:54;;;;;;;14.55;10.43;;;22.60;99.90;;;;;;4131818;28;20184;-92
2022/08/17 03:12:55;;;;;;;13.45;10.35;;;22.60;99.90;;;;;;4147999;28;20201;-92
2022/08/17 03:14:55;;;;;;;16.17;9.60;;;22.60;99.90;;;;;;4115919;28;20268;-92
2022/08/17 03:16:56;;;;;;;18.58;11.57;;;22.60;99.90;;;;;;4147784;28;20165;-92
2022/08/17 03:18:57;;;;;;;15.23;10.73;;;22.70;99.90;;;;;;4115452;28;20209;-92
2022/08/17 03:21:00;;;;;;;24.45;12.02;;;22.70;99.90;;;;;;4147894;28;20181;-92
2022/08/17 03:23:01;;;;;;;21.45;11.65;;;22.70;99.90;;;;;;4147821;28;20161;-92
2022/08/17 03:25:02;;;;;;;24.52;12.27;;;22.70;99.90;;;;;;4148040;28;20173;-93
2022/08/17 03:27:03;;;;;;;18.63;11.32;;;22.80;99.90;;;;;;4148025;28;20177;-92
2022/08/17 03:29:04;;;;;;;14.90;11.25;;;22.90;99.90;;;;;;4115623;28;20237;-92
2022/08/17 03:31:06;;;;;;;18.42;12.50;;;22.80;99.90;;;;;;4147879;28;20181;-93
2022/08/17 03:33:11;;;;;;;16.23;11.73;;;22.90;99.90;;;;;;4147927;28;20210;-92
2022/08/17 03:35:15;;;;;;;18.77;12.82;;;22.90;99.90;;;;;;4147689;28;20188;-92
2022/08/17 03:37:15;;;;;;;16.30;13.00;;;22.80;99.90;;;;;;4150038;28;20169;-92
2022/08/17 03:39:16;;;;;;;19.67;13.18;;;22.80;99.90;;;;;;4118600;28;20286;-93
2022/08/17 03:41:17;;;;;;;24.60;14.60;;;22.90;99.90;;;;;;4150786;28;20173;-94
2022/08/17 03:43:19;;;;;;;18.90;14.55;;;22.90;99.90;;;;;;4118502;28;20257;-92
2022/08/17 03:57:06;;;;;;;25.05;18.98;;;22.70;99.90;;;;;;4166903;28;20234;-92
2022/08/17 03:59:15;;;;;;;22.83;16.92;;;22.70;99.90;;;;;;4150537;28;20203;-93
2022/08/17 04:01:16;;;;;;;26.92;18.38;;;22.70;99.90;;;;;;4150421;28;20323;-93
2022/08/17 04:03:17;;;;;;;29.83;19.05;;;22.60;99.90;;;;;;4150627;28;20181;-94
2022/08/17 04:05:18;;;;;;;22.23;17.80;;;22.60;99.90;;;;;;4118068;28;20681;-93
2022/08/17 04:07:21;;;;;;;25.75;20.05;;;22.60;99.90;;;;;;4150427;28;20181;-92
2022/08/17 04:09:22;;;;;;;22.38;18.90;;;22.60;99.90;;;;;;4150457;28;20211;-92
2022/08/17 04:11:22;;;;;;;30.65;20.25;;;22.60;99.90;;;;;;4118054;28;20166;-91
2022/08/17 04:13:23;;;;;;;32.80;20.90;;;22.50;99.90;;;;;;4150105;28;20217;-93
2022/08/17 04:15:25;;;;;;;26.25;19.45;;;22.50;99.90;;;;;;4117861;28;20170;-91
2022/08/17 04:17:27;;;;;;;26.50;21.30;;;22.40;99.90;;;;;;4150174;28;20180;-92
2022/08/17 04:19:28;;;;;;;29.52;23.08;;;22.30;99.90;;;;;;4150059;28;20671;-93
2022/08/17 04:21:29;;;;;;;32.72;22.65;;;22.40;99.90;;;;;;4117822;28;20178;-91
2022/08/17 04:23:32;;;;;;;29.45;21.40;;;22.40;99.90;;;;;;4150076;28;20788;-91
2022/08/17 04:25:35;;;;;;;29.90;23.05;;;22.40;99.90;;;;;;4133713;28;20264;-92
2022/08/17 04:27:36;;;;;;;27.80;23.02;;;22.30;99.90;;;;;;4149853;28;20200;-92
2022/08/17 04:29:37;;;;;;;32.63;24.50;;;22.30;99.90;;;;;;4133608;28;20167;-92
2022/08/17 04:31:37;;;;;;;28.85;22.52;;;22.30;99.90;;;;;;4133548;28;20178;-93
2022/08/17 04:33:41;;;;;;;25.95;22.70;;;22.20;99.90;;;;;;4149668;28;20260;-92
2022/08/17 04:35:48;;;;;;;30.45;24.25;;;22.10;99.90;;;;;;4149875;28;20281;-93
2022/08/17 04:37:50;;;;;;;32.60;24.58;;;22.00;99.90;;;;;;4149994;28;20202;-93
2022/08/17 04:42:05;;;;;;;30.92;24.60;;;22.00;99.90;;;;;;4150005;28;20707;-93
2022/08/17 04:42:16;;;;;;;30.55;24.45;;;21.90;99.90;;;;;;4133349;28;20265;-92
2022/08/17 04:44:16;;;;;;;38.45;26.92;;;21.80;99.90;;;;;;4149725;28;20165;-94
2022/08/17 04:46:19;;;;;;;34.55;23.90;;;21.90;99.90;;;;;;4117421;28;20221;-92
2022/08/17 04:48:20;;;;;;;33.78;26.75;;;21.90;99.90;;;;;;4149209;28;20220;-92
2022/08/17 04:50:21;;;;;;;32.55;26.58;;;22.00;99.90;;;;;;4117493;28;20174;-92
2022/08/17 04:52:21;;;;;;;32.25;25.67;;;22.10;99.90;;;;;;4149568;28;20173;-93
2022/08/17 04:54:22;;;;;;;29.23;24.10;;;22.10;99.90;;;;;;4117705;28;20214;-92
2022/08/17 04:56:24;;;;;;;34.28;24.98;;;22.20;99.90;;;;;;4149302;28;20213;-94
2022/08/17 04:58:25;;;;;;;34.58;28.33;;;22.10;99.90;;;;;;4149349;28;20200;-92
2022/08/17 05:00:26;;;;;;;38.17;27.77;;;22.00;99.90;;;;;;4117083;28;20555;-93
2022/08/17 05:02:27;;;;;;;32.35;26.73;;;22.10;99.90;;;;;;4149301;28;20207;-94
2022/08/17 05:04:27;;;;;;;35.13;27.67;;;22.10;99.90;;;;;;4117153;28;20170;-93
2022/08/17 05:06:28;;;;;;;32.22;24.38;;;22.10;99.90;;;;;;4117247;28;20572;-93
2022/08/17 05:08:29;;;;;;;36.15;27.98;;;22.10;99.90;;;;;;4149279;28;20282;-93
2022/08/17 05:10:35;;;;;;;38.00;27.10;;;22.10;99.90;;;;;;4149435;28;20633;-93
2022/08/17 05:12:36;;;;;;;36.78;28.40;;;22.10;99.90;;;;;;4149325;28;20590;-93
2022/08/17 05:14:38;;;;;;;35.95;28.33;;;22.10;99.90;;;;;;4117134;28;20186;-92
2022/08/17 05:16:39;;;;;;;38.17;27.10;;;22.10;99.90;;;;;;4149360;28;20177;-92
2022/08/17 05:18:39;;;;;;;31.65;25.08;;;22.00;99.90;;;;;;4116594;28;20337;-92
2022/08/17 05:20:40;;;;;;;42.08;29.23;;;22.00;99.90;;;;;;4149011;28;20173;-92
2022/08/17 05:22:53;;;;;;;42.50;31.05;;;22.10;99.90;;;;;;4132763;28;20178;-92
2022/08/17 05:24:53;;;;;;;41.72;29.48;;;22.30;99.90;;;;;;4149253;28;20632;-92
2022/08/17 05:26:54;;;;;;;37.92;31.08;;;22.30;99.90;;;;;;4117141;28;20182;-93
2022/08/17 05:28:57;;;;;;;30.63;24.35;;;22.10;99.90;;;;;;4149166;28;20193;-93
2022/08/17 05:31:00;;;;;;;34.45;25.55;;;22.10;99.90;;;;;;4149113;28;20169;-94
2022/08/17 05:33:08;;;;;;;36.65;27.95;;;22.10;99.90;;;;;;4149007;28;20320;-92
2022/08/17 05:35:09;;;;;;;41.38;29.42;;;22.10;99.90;;;;;;4148913;28;20633;-93
2022/08/17 05:37:10;;;;;;;31.48;27.15;;;22.10;99.90;;;;;;4116417;28;20189;-93
2022/08/17 05:39:13;;;;;;;39.90;29.60;;;22.20;99.90;;;;;;4148769;28;20196;-93
2022/08/17 05:41:14;;;;;;;37.80;28.48;;;22.20;99.90;;;;;;4148824;28;20176;-93
2022/08/17 05:43:24;;;;;;;45.63;31.55;;;22.30;99.90;;;;;;4116535;28;20177;-93
2022/08/17 05:45:26;;;;;;;41.55;32.17;;;22.30;99.90;;;;;;4148786;28;20176;-92
2022/08/17 05:47:27;;;;;;;41.60;32.28;;;22.30;99.90;;;;;;4132301;28;20188;-94
2022/08/17 05:49:28;;;;;;;43.95;32.75;;;22.10;99.90;;;;;;4148867;28;20732;-93
2022/08/17 05:52:06;;;;;;;40.65;32.38;;;22.20;99.90;;;;;;4116491;28;20327;-94
2022/08/17 05:54:25;;;;;;;41.00;31.75;;;22.30;99.90;;;;;;4148665;28;20212;-94
2022/08/17 05:56:50;;;;;;;38.80;30.83;;;22.10;99.90;;;;;;4148552;28;20179;-93
2022/08/17 05:59:01;;;;;;;39.90;32.10;;;22.10;99.90;;;;;;4148006;28;20208;-92
2022/08/17 06:01:11;;;;;;;32.42;26.30;;;22.10;99.90;;;;;;4148505;28;20169;-94
2022/08/17 06:03:28;;;;;;;45.55;30.60;;;22.00;99.90;;;;;;4148657;28;20219;-93
2022/08/17 06:05:46;;;;;;;47.15;33.03;;;22.10;99.90;;;;;;4148561;28;20175;-93
2022/08/17 06:07:54;;;;;;;44.17;34.40;;;22.20;99.90;;;;;;4148265;28;20215;-93
2022/08/17 06:10:06;;;;;;;42.13;33.35;;;22.20;99.90;;;;;;4148681;28;20620;-93
2022/08/17 06:12:25;;;;;;;38.92;30.42;;;22.20;99.90;;;;;;4148565;28;20318;-93
2022/08/17 06:14:49;;;;;;;49.88;39.97;;;22.30;99.90;;;;;;4148444;28;20603;-94
2022/08/17 06:16:55;;;;;;;54.60;41.17;;;22.50;99.90;;;;;;4148298;28;20255;-92
2022/08/17 06:19:01;;;;;;;49.25;37.95;;;22.40;99.90;;;;;;4148234;28;20188;-94
2022/08/17 06:21:05;;;;;;;54.55;41.75;;;22.30;99.90;;;;;;4148553;28;20173;-93
2022/08/17 06:23:13;;;;;;;55.45;44.05;;;22.30;99.90;;;;;;4148474;28;20181;-92
2022/08/17 06:25:16;;;;;;;70.75;45.58;;;22.20;99.90;;;;;;4148363;28;20179;-92
2022/08/17 06:27:37;;;;;;;59.60;45.30;;;22.10;99.90;;;;;;4148304;28;20173;-94
2022/08/17 06:29:51;;;;;;;57.53;43.83;;;22.20;99.90;;;;;;4148192;28;20263;-92
2022/08/17 06:31:52;;;;;;;52.53;42.38;;;22.20;99.90;;;;;;4148200;28;20168;-93
2022/08/17 06:33:54;;;;;;;56.50;44.35;;;22.20;99.90;;;;;;4116030;28;20221;-93
2022/08/17 06:36:11;;;;;;;58.20;45.03;;;22.30;99.90;;;;;;4148312;28;20200;-92
2022/08/17 06:38:18;;;;;;;57.55;42.63;;;22.20;99.90;;;;;;4148020;28;20565;-94
2022/08/17 06:40:38;;;;;;;55.38;43.85;;;22.30;99.90;;;;;;4148367;28;20218;-94
2022/08/17 06:43:13;;;;;;;57.13;43.08;;;22.30;99.90;;;;;;4148322;28;20537;-93
2022/08/17 06:45:17;;;;;;;55.03;42.42;;;22.30;99.90;;;;;;4148100;28;20168;-93
2022/08/17 06:47:29;;;;;;;58.40;44.70;;;22.30;99.90;;;;;;4148090;28;20588;-93
2022/08/17 06:50:14;;;;;;;56.17;42.72;;;22.30;99.90;;;;;;4148128;28;20179;-94
2022/08/17 06:52:21;;;;;;;62.03;45.58;;;22.30;99.90;;;;;;4141114;28;20196;-92
2022/08/17 06:54:54;;;;;;;61.92;46.25;;;22.50;99.90;;;;;;4148007;28;20274;-94
2022/08/17 06:57:22;;;;;;;61.08;42.88;;;22.30;99.90;;;;;;4148060;28;20244;-94
2022/08/17 06:59:38;;;;;;;55.45;42.22;;;22.30;99.90;;;;;;4148138;28;20201;-92
2022/08/17 07:01:40;;;;;;;61.85;43.53;;;22.40;99.90;;;;;;4147778;28;20211;-94
2022/08/17 07:03:48;;;;;;;68.80;50.63;;;22.40;99.90;;;;;;4147893;28;20263;-94
2022/08/17 07:05:59;;;;;;;60.00;47.35;;;22.50;99.90;;;;;;4147950;28;20168;-93
2022/08/17 07:08:13;;;;;;;61.80;46.85;;;22.60;99.90;;;;;;4147570;28;20193;-94
2022/08/17 07:10:15;;;;;;;63.40;46.50;;;22.40;99.90;;;;;;4147868;28;20203;-94
2022/08/17 07:12:21;;;;;;;66.10;49.03;;;22.40;99.90;;;;;;4150600;28;20161;-92
2022/08/17 07:14:28;;;;;;;68.90;47.95;;;22.40;99.90;;;;;;4151196;28;20220;-94
2022/08/17 07:16:39;;;;;;;58.95;43.45;;;22.40;99.90;;;;;;4150918;28;20680;-95
2022/08/17 07:18:42;;;;;;;66.53;49.65;;;22.50;99.90;;;;;;4150926;28;20189;-94
2022/08/17 07:20:46;;;;;;;66.13;48.60;;;22.40;99.90;;;;;;4151180;28;20176;-93
2022/08/17 07:23:19;;;;;;;58.72;44.63;;;22.40;99.90;;;;;;4150932;28;20207;-93
2022/08/17 07:25:21;;;;;;;65.35;49.90;;;22.30;99.90;;;;;;4150865;28;20181;-93
2022/08/17 07:27:29;;;;;;;63.58;46.75;;;22.20;99.90;;;;;;4118509;28;20280;-93
2022/08/17 07:29:33;;;;;;;68.47;49.83;;;22.20;99.90;;;;;;4150848;28;20188;-93
2022/08/17 07:31:33;;;;;;;63.72;47.53;;;22.30;99.90;;;;;;4150841;28;20232;-92
2022/08/17 07:33:35;;;;;;;56.08;43.40;;;22.30;99.90;;;;;;4118469;28;20246;-93
2022/08/17 07:35:40;;;;;;;65.65;45.40;;;22.20;99.90;;;;;;4150681;28;20204;-93
2022/08/17 07:37:52;;;;;;;65.25;48.90;;;22.30;99.90;;;;;;4150638;28;20201;-94
2022/08/17 07:39:54;;;;;;;66.65;48.42;;;22.40;99.90;;;;;;4150728;28;20180;-95
2022/08/17 07:42:02;;;;;;;74.95;52.35;;;22.40;99.90;;;;;;4118279;28;20175;-95
2022/08/17 07:44:14;;;;;;;74.40;52.58;;;22.60;99.90;;;;;;4150646;28;20169;-94
2022/08/17 07:49:02;;;;;;;69.13;51.92;;;22.40;99.90;;;;;;4166746;28;20552;-94
2022/08/17 07:51:17;;;;;;;67.75;49.97;;;22.40;99.90;;;;;;4150517;28;20180;-93
2022/08/17 07:53:22;;;;;;;71.40;53.03;;;22.50;99.90;;;;;;4150336;28;20616;-93
2022/08/17 07:55:31;;;;;;;78.13;53.85;;;22.60;99.90;;;;;;4150212;28;20284;-95
2022/08/17 07:57:34;;;;;;;73.78;54.47;;;22.30;99.90;;;;;;4150112;28;20184;-94
2022/08/17 07:59:41;;;;;;;73.05;53.65;;;22.20;99.90;;;;;;4150510;28;20228;-94
2022/08/17 08:01:47;;;;;;;75.63;56.00;;;22.10;99.90;;;;;;4150491;28;20260;-94
2022/08/17 08:03:48;;;;;;;78.07;55.58;;;22.40;99.90;;;;;;4150396;28;20198;-95
2022/08/17 08:05:55;;;;;;;88.22;60.80;;;22.80;99.90;;;;;;4134246;28;20742;-93
2022/08/17 08:08:30;;;;;;;80.40;58.83;;;23.30;99.90;;;;;;4150239;28;20196;-93
2022/08/17 08:10:41;;;;;;;84.25;57.95;;;23.30;99.90;;;;;;4150798;28;20271;-93
2022/08/17 08:12:47;;;;;;;82.72;59.83;;;22.70;99.90;;;;;;4150364;28;20251;-93
2022/08/17 08:15:17;;;;;;;84.70;60.05;;;22.40;99.90;;;;;;4150304;28;20188;-93
2022/08/17 08:17:23;;;;;;;85.65;60.45;;;22.40;99.90;;;;;;4150105;28;20173;-94
2022/08/17 08:19:24;;;;;;;80.85;59.95;;;22.10;99.90;;;;;;4150105;28;20169;-95
2022/08/17 08:21:43;;;;;;;88.28;61.22;;;22.20;99.90;;;;;;4117686;28;20186;-94
2022/08/17 08:23:56;;;;;;;86.80;61.17;;;22.20;99.90;;;;;;4149808;28;20231;-94
2022/08/17 08:26:03;;;;;;;88.40;58.50;;;22.40;99.90;;;;;;4150538;28;20702;-93
2022/08/17 08:28:07;;;;;;;79.68;58.45;;;22.40;99.90;;;;;;4153226;28;20200;-95
2022/08/17 08:30:14;;;;;;;84.45;60.28;;;22.30;99.90;;;;;;4152364;28;20212;-95
2022/08/17 08:32:20;;;;;;;89.40;63.20;;;22.30;99.90;;;;;;4149962;28;20177;-95
2022/08/17 08:34:32;;;;;;;86.13;60.83;;;22.70;99.90;;;;;;4150014;28;20208;-95
2022/08/17 08:36:48;;;;;;;98.35;66.32;;;22.70;99.90;;;;;;4150580;28;20176;-93
2022/08/17 08:38:59;;;;;;;93.20;67.32;;;23.30;99.90;;;;;;4149680;28;20204;-93
2022/08/17 08:41:11;;;;;;;103.88;70.60;;;23.60;99.90;;;;;;4149767;28;20185;-94
2022/08/17 08:43:26;;;;;;;111.57;72.68;;;23.50;99.90;;;;;;4150159;28;20175;-95
2022/08/17 08:45:55;;;;;;;112.15;75.07;;;23.10;99.90;;;;;;4151913;28;20236;-94
2022/08/17 08:48:08;;;;;;;123.45;77.15;;;22.70;99.90;;;;;;4157232;28;20264;-94
2022/08/17 08:50:30;;;;;;;126.03;79.10;;;22.30;99.90;;;;;;4154197;28;20173;-95
2022/08/17 08:52:52;;;;;;;124.15;81.78;;;22.00;99.90;;;;;;4151628;28;20301;-92
2022/08/17 08:55:22;;;;;;;127.45;80.20;;;22.00;99.90;;;;;;4152179;28;20304;-92
2022/08/17 08:57:42;;;;;;;126.55;80.35;;;22.00;99.90;;;;;;4116940;28;20198;-95
2022/08/17 09:00:01;;;;;;;123.10;77.85;;;21.90;99.90;;;;;;4149548;28;20228;-92
2022/08/17 09:02:37;;;;;;;119.90;78.05;;;21.70;99.90;;;;;;4149494;28;20180;-95
2022/08/17 09:05:02;;;;;;;111.45;74.05;;;21.70;99.90;;;;;;4109317;28;20188;-92
2022/08/17 09:07:25;;;;;;;103.35;69.43;;;21.80;99.90;;;;;;4149988;28;20200;-92
2022/08/17 09:09:44;;;;;;;103.20;67.45;;;22.00;99.90;;;;;;4149558;28;20169;-96
2022/08/17 09:12:00;;;;;;;107.00;67.68;;;22.10;99.90;;;;;;4149777;28;20243;-91
2022/08/17 09:14:19;;;;;;;98.28;69.25;;;22.70;99.90;;;;;;4149353;28;20235;-91
2022/08/17 09:16:49;;;;;;;99.40;68.00;;;22.90;99.90;;;;;;4149780;28;20268;-92
2022/08/17 09:18:53;;;;;;;105.25;70.25;;;23.20;99.90;;;;;;4108740;28;20296;-94
2022/08/17 09:21:20;;;;;;;103.35;73.47;;;23.70;99.90;;;;;;4149508;28;20180;-91
2022/08/17 09:23:48;;;;;;;116.13;76.10;;;24.10;99.90;;;;;;4150280;28;20177;-93
2022/08/17 09:25:57;;;;;;;113.15;76.57;;;24.10;99.90;;;;;;4149927;28;20669;-93
2022/08/17 09:28:05;;;;;;;109.95;76.35;;;23.90;99.90;;;;;;4150263;28;20213;-92
2022/08/17 09:30:09;;;;;;;112.75;77.00;;;23.70;99.90;;;;;;4149875;28;20250;-94
2022/08/17 09:32:28;;;;;;;118.45;78.85;;;23.50;99.90;;;;;;4149198;28;20172;-95
2022/08/17 09:34:46;;;;;;;117.45;80.47;;;23.40;99.90;;;;;;4148447;28;20216;-95
2022/08/17 09:36:59;;;;;;;123.55;81.30;;;23.20;99.90;;;;;;4149064;28;20271;-93
2022/08/17 09:39:15;;;;;;;126.13;83.10;;;23.00;99.90;;;;;;4149166;28;20200;-94
2022/08/17 09:41:42;;;;;;;125.93;82.47;;;22.90;99.90;;;;;;4148905;28;20168;-92
2022/08/17 09:44:11;;;;;;;126.38;80.70;;;23.00;99.90;;;;;;4148849;28;20231;-94
2022/08/17 09:46:37;;;;;;;117.07;79.00;;;23.10;99.90;;;;;;4149036;28;20650;-91
2022/08/17 09:48:49;;;;;;;117.72;78.85;;;23.10;99.90;;;;;;4148738;28;20228;-91
2022/08/17 09:50:51;;;;;;;125.60;81.35;;;23.20;99.90;;;;;;4148974;28;20168;-92
2022/08/17 09:52:58;;;;;;;116.70;77.78;;;23.10;99.90;;;;;;4116670;28;20232;-90
2022/08/17 09:55:00;;;;;;;114.30;78.20;;;23.30;99.90;;;;;;4149079;28;20192;-92
2022/08/17 09:57:12;;;;;;;120.47;79.65;;;23.40;99.90;;;;;;4116541;28;20170;-92
2022/08/17 09:59:43;;;;;;;122.40;78.13;;;23.50;99.90;;;;;;4148765;28;20347;-91
2022/08/17 10:02:15;;;;;;;115.45;77.13;;;23.50;99.90;;;;;;4113186;28;20200;-92
2022/08/17 10:04:18;;;;;;;110.43;75.07;;;23.60;99.90;;;;;;4148392;28;20227;-93
2022/08/17 10:06:24;;;;;;;103.75;70.68;;;23.60;99.90;;;;;;4148449;28;20204;-92
2022/08/17 10:08:37;;;;;;;98.85;71.03;;;23.70;99.90;;;;;;4148516;28;20196;-95
2022/08/17 10:10:48;;;;;;;100.75;71.03;;;23.80;99.90;;;;;;4148909;28;20248;-94
2022/08/17 10:13:08;;;;;;;103.93;71.28;;;23.90;99.90;;;;;;4148599;28;20169;-91
2022/08/17 10:15:24;;;;;;;91.32;66.88;;;23.90;99.90;;;;;;4148868;28;20191;-92
2022/08/17 10:17:43;;;;;;;85.13;62.08;;;24.40;99.90;;;;;;4148573;28;20211;-93
2022/08/17 10:19:58;;;;;;;79.72;55.10;;;24.30;99.90;;;;;;4148516;28;20187;-92
2022/08/17 10:27:16;;;;;;;67.93;50.97;;;24.40;99.90;;;;;;4164571;28;20191;-93
2022/08/17 10:29:24;;;;;;;72.22;50.92;;;24.90;99.90;;;;;;4148349;28;20173;-91
2022/08/17 10:31:30;;;;;;;69.55;52.88;;;25.10;99.90;;;;;;4148278;28;20172;-91
2022/08/17 10:34:03;;;;;;;74.35;55.92;;;25.20;99.90;;;;;;4148082;28;20295;-92
2022/08/17 10:36:36;;;;;;;71.00;52.00;;;24.90;99.90;;;;;;4148140;28;20247;-93
2022/08/17 10:38:46;;;;;;;64.60;49.35;;;24.10;99.90;;;;;;4148069;28;20227;-94
2022/08/17 10:41:09;;;;;;;69.72;49.53;;;23.60;99.90;;;;;;4148282;28;20259;-91
2022/08/17 10:43:42;;;;;;;59.88;45.58;;;23.80;99.90;;;;;;4148064;28;20231;-95
2022/08/17 10:46:07;;;;;;;48.45;39.38;;;24.30;99.90;;;;;;4150086;28;20180;-95
2022/08/17 10:48:08;;;;;;;43.03;31.70;;;24.20;99.90;;;;;;4151273;28;20561;-92
2022/08/17 10:50:46;;;;;;;31.73;26.65;;;24.30;99.90;;;;;;4119492;28;20190;-91
2022/08/17 10:52:47;;;;;;;41.25;32.67;;;24.40;99.90;;;;;;4151255;28;20169;-92
2022/08/17 10:54:50;;;;;;;39.50;30.67;;;24.80;99.90;;;;;;4151738;28;20295;-95
2022/08/17 10:56:56;;;;;;;39.83;31.42;;;25.10;99.90;;;;;;4151461;28;20169;-91
2022/08/17 10:58:59;;;;;;;48.45;37.38;;;25.40;99.90;;;;;;4151368;28;20197;-95
2022/08/17 11:01:01;;;;;;;49.45;37.03;;;25.40;99.90;;;;;;4151354;28;20196;-92
2022/08/17 11:03:22;;;;;;;50.38;39.35;;;25.40;99.90;;;;;;4119164;28;20209;-92
2022/08/17 11:05:44;;;;;;;45.65;34.75;;;25.40;99.90;;;;;;4151626;28;20177;-92